Main page
METAR-TAF:

METAR-TAF

Airports :

Albert – Picardie Airport

Albert, France

latitude: 49-58-21N, longitude: 002-41-29E, elevation: 111 m

Current weather observation

The report was made 44 minutes ago, at 21:30 UTC
Wind 10 kt from the South
Temperature 0°C
Humidity 100%
Pressure 997 hPa
Visibility: 0650 m
fog

METAR: LFAQ 222130Z AUTO 17010KT 0750 0650 R27/1000N FG VV/// ///TCU 00/00 Q0997

Time: 23:14 (22:14 UTC)

Forecast

The report was made 8 hours and 14 minutes ago, at 14:00 UTC
Forecast valid from 22 at 15 UTC to 22 at 24 UTC
Wind 6 kt from the South
Visibility: 6000 m
Overcast at a height of 600 ft
Temporary
from 22 at 15 UTC to 22 at 18 UTC
Visibility: 3000 m
mist
Temporary
from 22 at 20 UTC to 22 at 24 UTC
Visibility: 1500 m
Broken clouds at a height of 300 ft
Broken clouds at a height of 3000 ft, Towering cumulus.
snow showers

TAF: LFAQ 221400Z 2215/2224 17006KT 6000 OVC006 TEMPO 2215/2218 3000 BR TEMPO 2220/2224 1500 SHSN BKN003 BKN030TCU

Weather observations and forecasts of more than 4000 airports (METAR and TAF reports).

The available stations are represented by yellow and red dots on the map.

Hover mouse over dot to see the name of the station.

Then click to see weather observations and forecasts.

To change the map : click on the green buttons with a black cross to zoom in, on the green button with a dash to zoom out, or on the green arrows for adjacent maps.


METAR-TAF: